createdAt,value
2022-07-25T00:02:07.400Z,48.40
2022-07-25T00:04:35.883Z,48.60
2022-07-25T00:07:03.112Z,48.80
2022-07-25T00:09:29.976Z,48.60
2022-07-25T00:11:56.744Z,48.70
2022-07-25T00:14:23.537Z,48.90
2022-07-25T00:16:50.407Z,50.00
2022-07-25T00:19:18.151Z,49.00
2022-07-25T00:21:45.046Z,48.80
2022-07-25T00:24:11.872Z,48.80
2022-07-25T00:26:40.408Z,48.90
2022-07-25T00:29:07.586Z,49.00
2022-07-25T00:31:34.853Z,49.20
2022-07-25T00:34:02.350Z,49.40
2022-07-25T00:36:29.272Z,49.80
2022-07-25T00:38:56.092Z,49.70
2022-07-25T00:41:22.935Z,49.60
2022-07-25T00:43:49.733Z,49.90
2022-07-25T00:46:18.799Z,49.70
2022-07-25T00:48:46.136Z,50.10
2022-07-25T00:51:13.009Z,50.10
2022-07-25T00:53:39.966Z,50.20
2022-07-25T00:56:07.215Z,50.40
2022-07-25T00:58:34.261Z,50.60
2022-07-25T01:01:01.796Z,50.70
2022-07-25T01:03:28.713Z,51.10
2022-07-25T01:05:55.680Z,51.30
2022-07-25T01:08:23.092Z,51.40
2022-07-25T01:10:50.222Z,51.30
2022-07-25T01:13:17.074Z,51.50
2022-07-25T01:15:44.098Z,51.60
2022-07-25T01:18:10.935Z,51.80
2022-07-25T01:20:37.736Z,51.90
2022-07-25T01:23:04.586Z,51.80
2022-07-25T01:25:31.490Z,51.80
2022-07-25T01:27:58.286Z,51.80
2022-07-25T01:30:26.021Z,51.60
2022-07-25T01:32:53.270Z,51.90
2022-07-25T01:35:20.778Z,52.40
2022-07-25T01:37:47.630Z,52.70
2022-07-25T01:40:15.037Z,52.70
2022-07-25T01:42:43.060Z,52.80
2022-07-25T01:45:11.116Z,53.10
2022-07-25T01:47:38.018Z,53.60
2022-07-25T01:50:05.747Z,53.90
2022-07-25T01:52:32.730Z,54.00
2022-07-25T01:54:59.567Z,54.00
2022-07-25T01:57:30.838Z,54.00
2022-07-25T01:59:59.199Z,54.00
2022-07-25T02:02:26.353Z,54.00
2022-07-25T02:04:53.698Z,54.00
2022-07-25T02:07:20.608Z,54.20
2022-07-25T02:09:47.387Z,54.10
2022-07-25T02:12:14.213Z,54.10
2022-07-25T02:14:41.076Z,54.10
2022-07-25T02:17:08.417Z,53.80
2022-07-25T02:19:36.015Z,54.60
2022-07-25T02:22:03.001Z,54.50
2022-07-25T02:24:29.858Z,54.00
2022-07-25T02:26:56.646Z,54.30
2022-07-25T02:29:24.311Z,54.30
2022-07-25T02:31:52.975Z,54.40
2022-07-25T02:34:19.906Z,54.10
2022-07-25T02:36:46.856Z,54.40
2022-07-25T02:39:13.698Z,54.50
2022-07-25T02:41:40.546Z,54.70
2022-07-25T02:44:07.740Z,54.80
2022-07-25T02:46:34.814Z,54.80
2022-07-25T02:49:02.009Z,55.30
2022-07-25T02:51:29.316Z,55.20
2022-07-25T02:53:58.250Z,55.50
2022-07-25T02:56:29.807Z,55.70
2022-07-25T02:58:57.681Z,55.60
2022-07-25T03:01:24.827Z,55.80
2022-07-25T03:03:51.896Z,57.10
2022-07-25T03:06:18.781Z,55.60
2022-07-25T03:08:45.910Z,56.00
2022-07-25T03:11:13.610Z,55.20
2022-07-25T03:13:40.479Z,56.00
2022-07-25T03:16:08.164Z,56.40
2022-07-25T03:18:34.957Z,56.10
2022-07-25T03:21:01.826Z,55.40
2022-07-25T03:23:28.669Z,55.90
2022-07-25T03:25:56.175Z,56.10
2022-07-25T03:28:24.716Z,56.90
2022-07-25T03:30:52.892Z,56.70
2022-07-25T03:33:19.847Z,57.10
2022-07-25T03:35:46.817Z,58.80
2022-07-25T03:38:13.636Z,57.20
2022-07-25T03:40:40.600Z,57.60
2022-07-25T03:43:08.655Z,57.90
2022-07-25T03:45:35.581Z,57.70
2022-07-25T03:48:02.540Z,58.00
2022-07-25T03:50:29.385Z,58.60
2022-07-25T03:52:56.281Z,58.90
2022-07-25T03:55:23.054Z,58.60
2022-07-25T03:57:50.862Z,58.00
2022-07-25T04:00:18.150Z,58.10
2022-07-25T04:02:44.985Z,57.70
2022-07-25T04:05:11.876Z,57.50
2022-07-25T04:07:39.009Z,57.50
2022-07-25T04:10:06.570Z,57.20
2022-07-25T04:12:33.751Z,56.80
2022-07-25T04:15:01.196Z,56.80
2022-07-25T04:17:27.975Z,57.90
2022-07-25T04:19:54.732Z,57.20
2022-07-25T04:22:22.274Z,57.90
2022-07-25T04:24:49.167Z,57.60
2022-07-25T04:27:15.896Z,57.40
2022-07-25T04:29:42.680Z,57.50
2022-07-25T04:32:09.643Z,57.50
2022-07-25T04:34:36.468Z,57.40
2022-07-25T04:37:03.261Z,57.90
2022-07-25T04:39:30.046Z,57.90
2022-07-25T04:41:57.143Z,58.50
2022-07-25T04:44:24.447Z,58.20
2022-07-25T04:46:51.308Z,57.80
2022-07-25T04:49:18.186Z,57.60
2022-07-25T04:51:45.001Z,58.50
2022-07-25T04:54:11.876Z,58.20
2022-07-25T04:56:38.653Z,58.80
2022-07-25T04:59:06.727Z,58.90
2022-07-25T05:01:34.847Z,58.60
2022-07-25T05:04:01.830Z,58.60
2022-07-25T05:06:28.655Z,58.80
2022-07-25T05:08:55.647Z,58.00
2022-07-25T05:11:22.564Z,58.10
2022-07-25T05:13:49.436Z,58.20
2022-07-25T05:16:16.519Z,57.50
2022-07-25T05:18:43.346Z,56.60
2022-07-25T05:21:12.150Z,56.30
2022-07-25T05:23:39.360Z,56.70
2022-07-25T05:26:06.440Z,56.50
2022-07-25T05:28:33.297Z,56.00
2022-07-25T05:31:00.111Z,55.70
2022-07-25T05:33:27.120Z,55.80
2022-07-25T05:35:54.006Z,55.90
2022-07-25T05:38:20.992Z,55.90
2022-07-25T05:40:49.031Z,55.60
2022-07-25T05:43:15.808Z,55.70
2022-07-25T05:45:42.640Z,55.60
2022-07-25T05:48:09.582Z,55.80
2022-07-25T05:50:39.838Z,55.90
2022-07-25T05:53:06.735Z,55.90
2022-07-25T05:55:33.675Z,56.10
2022-07-25T05:58:00.575Z,56.40
2022-07-25T06:00:29.760Z,56.40
2022-07-25T06:03:00.286Z,56.30
2022-07-25T06:05:27.285Z,56.00
2022-07-25T06:07:54.360Z,56.10
2022-07-25T06:10:22.001Z,56.60
2022-07-25T06:12:48.773Z,56.80
2022-07-25T06:15:22.463Z,56.60
2022-07-25T06:17:50.086Z,56.20
2022-07-25T06:20:16.961Z,56.00
2022-07-25T06:22:43.732Z,55.50
2022-07-25T06:25:10.885Z,55.40
2022-07-25T06:27:38.856Z,55.30
2022-07-25T06:30:18.693Z,55.30
2022-07-25T06:32:47.665Z,55.40
2022-07-25T06:35:14.491Z,55.80
2022-07-25T06:37:41.412Z,55.50
2022-07-25T06:40:10.252Z,55.10
2022-07-25T06:42:41.423Z,55.20
2022-07-25T06:45:09.665Z,54.90
2022-07-25T06:47:37.979Z,54.80
2022-07-25T06:50:11.309Z,54.90
2022-07-25T06:52:39.093Z,54.50
2022-07-25T06:55:07.453Z,54.70
2022-07-25T06:57:34.559Z,54.80
2022-07-25T07:00:01.641Z,54.80
2022-07-25T07:02:28.420Z,54.80
2022-07-25T07:04:55.191Z,54.70
2022-07-25T07:07:22.150Z,54.80
2022-07-25T07:09:48.971Z,54.70
2022-07-25T07:12:15.959Z,54.70
2022-07-25T07:14:45.206Z,54.60
2022-07-25T07:17:11.980Z,54.60
2022-07-25T07:19:44.280Z,55.10
2022-07-25T07:22:11.275Z,55.00
2022-07-25T07:24:44.075Z,54.80
2022-07-25T07:27:11.830Z,54.90
2022-07-25T07:29:38.742Z,54.80
2022-07-25T07:32:07.037Z,55.00
2022-07-25T07:34:34.026Z,55.00
2022-07-25T07:37:00.884Z,55.20
2022-07-25T07:39:27.779Z,54.90
2022-07-25T07:41:54.540Z,54.90
2022-07-25T07:44:21.309Z,55.10
2022-07-25T07:46:48.917Z,55.10
2022-07-25T07:49:15.978Z,55.20
2022-07-25T07:51:42.793Z,55.30
2022-07-25T07:54:28.481Z,55.40
2022-07-25T07:56:55.290Z,56.70
2022-07-25T07:59:22.093Z,55.30
2022-07-25T08:01:49.034Z,55.10
2022-07-25T08:04:16.268Z,55.20
2022-07-25T08:06:43.230Z,55.20
2022-07-25T08:09:10.358Z,54.90
2022-07-25T08:11:37.387Z,55.10
2022-07-25T08:14:05.487Z,55.30
2022-07-25T08:16:33.331Z,54.60
2022-07-25T08:19:00.290Z,55.20
2022-07-25T08:21:27.269Z,55.50
2022-07-25T08:23:54.305Z,55.00
2022-07-25T08:26:21.109Z,54.50
2022-07-25T08:28:52.560Z,54.70
2022-07-25T08:31:27.303Z,54.00
2022-07-25T08:33:54.156Z,54.10
2022-07-25T08:36:20.981Z,54.10
2022-07-25T08:38:47.758Z,54.10
2022-07-25T08:41:14.589Z,54.20
2022-07-25T08:43:43.156Z,54.20
2022-07-25T08:46:10.664Z,54.20
2022-07-25T08:48:39.127Z,54.80
2022-07-25T08:51:07.143Z,53.50
2022-07-25T08:53:35.889Z,53.50
2022-07-25T08:56:13.355Z,53.10
2022-07-25T08:58:44.218Z,52.70
2022-07-25T09:01:12.604Z,52.90
2022-07-25T09:03:40.225Z,53.00
2022-07-25T09:06:27.313Z,52.90
2022-07-25T09:08:57.082Z,52.60
2022-07-25T09:11:32.349Z,52.40
2022-07-25T09:14:08.776Z,51.80
2022-07-25T09:16:40.115Z,51.50
2022-07-25T09:19:08.775Z,50.90
2022-07-25T09:21:35.749Z,51.20
2022-07-25T09:24:17.218Z,51.10
2022-07-25T09:26:52.286Z,50.90
2022-07-25T09:29:28.378Z,50.40
2022-07-25T09:31:57.376Z,50.00
2022-07-25T09:34:34.572Z,50.30
2022-07-25T09:37:03.781Z,49.50
2022-07-25T09:39:35.617Z,49.20
2022-07-25T09:42:03.510Z,49.70
2022-07-25T09:44:30.425Z,49.90
2022-07-25T09:46:59.026Z,49.60
2022-07-25T09:49:26.782Z,49.80
2022-07-25T09:51:54.603Z,49.30
2022-07-25T09:54:22.999Z,49.30
2022-07-25T09:56:49.852Z,49.40
2022-07-25T09:59:16.675Z,48.80
2022-07-25T10:01:54.479Z,48.50
2022-07-25T10:04:24.476Z,48.50
2022-07-25T10:07:14.394Z,48.80
2022-07-25T10:09:49.081Z,48.20
2022-07-25T10:12:20.543Z,47.60
2022-07-25T10:15:10.196Z,47.30
2022-07-25T10:17:39.060Z,47.30
2022-07-25T10:20:10.526Z,46.30
2022-07-25T10:22:56.256Z,46.10
2022-07-25T10:25:24.399Z,45.80
2022-07-25T10:27:59.855Z,45.90
2022-07-25T10:30:28.007Z,47.00
2022-07-25T10:33:10.522Z,45.10
2022-07-25T10:35:37.917Z,43.70
2022-07-25T10:38:05.897Z,43.20
2022-07-25T10:40:40.188Z,43.20
2022-07-25T10:43:17.789Z,42.30
2022-07-25T10:45:57.160Z,42.30
2022-07-25T10:48:31.387Z,41.90
2022-07-25T10:51:02.491Z,41.30
2022-07-25T10:53:38.427Z,40.30
2022-07-25T10:56:19.976Z,40.40
2022-07-25T10:58:54.019Z,39.80
2022-07-25T11:01:25.944Z,39.80
2022-07-25T11:03:54.974Z,40.00
2022-07-25T11:06:41.846Z,39.40
2022-07-25T11:09:19.121Z,39.20
2022-07-25T11:11:48.319Z,37.50
2022-07-25T11:14:23.570Z,37.70
2022-07-25T11:16:52.485Z,38.50
2022-07-25T11:19:25.525Z,38.60
2022-07-25T11:22:00.928Z,39.10
2022-07-25T11:24:41.532Z,38.70
2022-07-25T11:27:12.252Z,38.50
2022-07-25T11:29:39.912Z,38.60
2022-07-25T11:32:09.886Z,38.60
2022-07-25T11:34:42.268Z,38.50
2022-07-25T11:37:11.992Z,37.90
2022-07-25T11:39:41.148Z,38.00
2022-07-25T11:42:16.398Z,38.00
2022-07-25T11:44:48.659Z,38.00
2022-07-25T11:47:27.528Z,37.50
2022-07-25T11:49:57.965Z,37.30
2022-07-25T11:52:32.317Z,37.50
2022-07-25T11:55:04.646Z,37.20
2022-07-25T11:57:33.630Z,36.60
2022-07-25T12:00:02.775Z,37.00
2022-07-25T12:02:36.895Z,36.70
2022-07-25T12:05:04.840Z,36.70
2022-07-25T12:07:40.347Z,36.70
2022-07-25T12:10:18.437Z,36.30
2022-07-25T12:12:50.924Z,35.70
2022-07-25T12:15:29.541Z,34.70
2022-07-25T12:17:58.019Z,34.80
2022-07-25T12:20:30.419Z,34.30
2022-07-25T12:23:00.205Z,33.90
2022-07-25T12:25:30.845Z,34.30
2022-07-25T12:27:59.365Z,34.20
2022-07-25T12:30:28.510Z,34.00
2022-07-25T12:32:56.724Z,34.30
2022-07-25T12:35:24.102Z,34.10
2022-07-25T12:37:52.086Z,33.70
2022-07-25T12:40:19.808Z,33.90
2022-07-25T12:42:47.531Z,33.80
2022-07-25T12:45:17.071Z,33.30
2022-07-25T12:47:45.747Z,32.90
2022-07-25T12:50:13.703Z,32.20
2022-07-25T12:52:41.648Z,31.60
2022-07-25T12:55:11.005Z,31.80
2022-07-25T12:57:38.816Z,30.90
2022-07-25T13:00:08.734Z,30.80
2022-07-25T13:02:35.895Z,31.00
2022-07-25T13:05:03.601Z,30.40
2022-07-25T13:07:30.552Z,30.00
2022-07-25T13:09:57.367Z,29.80
2022-07-25T13:12:24.187Z,29.70
2022-07-25T13:14:51.374Z,29.20
2022-07-25T13:17:19.691Z,29.30
2022-07-25T13:19:48.124Z,29.50
2022-07-25T13:22:14.912Z,30.00
2022-07-25T13:24:41.698Z,29.30
2022-07-25T13:27:09.393Z,29.00
2022-07-25T13:29:36.482Z,29.00
2022-07-25T13:32:03.825Z,28.80
2022-07-25T13:34:30.872Z,29.00
2022-07-25T13:36:58.357Z,29.10
2022-07-25T13:39:25.261Z,29.30
2022-07-25T13:41:52.094Z,29.10
2022-07-25T13:44:18.919Z,28.80
2022-07-25T13:46:49.854Z,29.00
2022-07-25T13:49:17.937Z,29.30
2022-07-25T13:51:45.553Z,29.60
2022-07-25T13:54:12.963Z,29.90
2022-07-25T13:56:41.474Z,29.90
2022-07-25T13:59:09.493Z,30.20
2022-07-25T14:01:36.845Z,30.40
2022-07-25T14:04:03.820Z,30.40
2022-07-25T14:06:30.624Z,30.60
2022-07-25T14:08:57.457Z,31.10
2022-07-25T14:11:30.068Z,31.20
2022-07-25T14:13:57.967Z,31.50
2022-07-25T14:16:24.902Z,32.00
2022-07-25T14:18:52.531Z,32.90
2022-07-25T14:21:19.308Z,34.10
2022-07-25T14:23:46.155Z,48.60
2022-07-25T14:26:13.385Z,55.60
2022-07-25T14:28:40.196Z,67.00
2022-07-25T14:31:07.203Z,73.90
2022-07-25T14:33:39.693Z,81.70
2022-07-25T14:36:10.278Z,85.40
2022-07-25T14:38:37.235Z,89.60
2022-07-25T14:41:10.673Z,89.90
2022-07-25T14:43:40.321Z,90.60
2022-07-25T14:46:08.219Z,92.80
2022-07-25T14:48:38.587Z,87.50
2022-07-25T14:51:06.488Z,88.10
2022-07-25T14:53:34.512Z,92.80
2022-07-25T14:56:04.723Z,94.10
2022-07-25T14:58:32.143Z,95.70
2022-07-25T15:00:59.172Z,96.70
2022-07-25T15:03:26.311Z,95.70
2022-07-25T15:05:53.696Z,98.10
2022-07-25T15:08:20.598Z,97.40
2022-07-25T15:10:47.437Z,97.40
2022-07-25T15:13:30.455Z,99.90
2022-07-25T15:15:58.346Z,97.80
2022-07-25T15:18:25.293Z,97.20
2022-07-25T15:20:52.253Z,98.20
2022-07-25T15:23:20.946Z,93.60
2022-07-25T15:26:04.590Z,92.60
2022-07-25T15:28:38.358Z,90.10
2022-07-25T15:31:05.881Z,90.10
2022-07-25T15:33:33.440Z,88.00
2022-07-25T15:36:00.358Z,84.10
2022-07-25T15:38:29.054Z,85.20
2022-07-25T15:40:56.437Z,83.80
2022-07-25T15:43:23.836Z,80.30
2022-07-25T15:45:50.628Z,81.30
2022-07-25T15:48:19.187Z,78.50
2022-07-25T15:50:48.407Z,80.00
2022-07-25T15:53:15.684Z,80.50
2022-07-25T15:55:42.842Z,81.20
2022-07-25T15:58:11.140Z,81.50
2022-07-25T16:00:38.474Z,80.90
2022-07-25T16:03:05.880Z,78.90
2022-07-25T16:05:32.990Z,80.10
2022-07-25T16:08:03.182Z,78.40
2022-07-25T16:10:31.613Z,83.00
2022-07-25T16:12:59.027Z,79.60
2022-07-25T16:15:26.410Z,81.50
2022-07-25T16:17:53.681Z,79.80
2022-07-25T16:20:20.615Z,75.50
2022-07-25T16:22:48.924Z,78.20
2022-07-25T16:25:15.970Z,76.90
2022-07-25T16:27:43.147Z,78.80
2022-07-25T16:30:10.537Z,72.70
2022-07-25T16:32:37.437Z,72.50
2022-07-25T16:35:04.632Z,69.00
2022-07-25T16:37:31.437Z,69.50
2022-07-25T16:39:58.283Z,68.60
2022-07-25T16:42:25.151Z,66.60
2022-07-25T16:44:52.138Z,58.30
2022-07-25T16:47:18.986Z,59.00
2022-07-25T16:49:45.909Z,55.80
2022-07-25T16:52:12.739Z,54.10
2022-07-25T16:54:41.194Z,54.80
2022-07-25T16:57:09.053Z,52.40
2022-07-25T16:59:36.118Z,51.50
2022-07-25T17:02:03.969Z,50.80
2022-07-25T17:04:30.853Z,49.60
2022-07-25T17:06:57.681Z,49.30
2022-07-25T17:09:25.209Z,49.80
2022-07-25T17:11:52.190Z,49.10
2022-07-25T17:14:19.082Z,49.40
2022-07-25T17:16:46.256Z,49.20
2022-07-25T17:19:13.119Z,50.80
2022-07-25T17:21:40.112Z,50.80
2022-07-25T17:24:07.344Z,50.80
2022-07-25T17:26:34.978Z,54.50
2022-07-25T17:29:01.964Z,53.00
2022-07-25T17:31:28.833Z,55.40
2022-07-25T17:33:55.656Z,58.10
2022-07-25T17:36:22.427Z,59.00
2022-07-25T17:38:49.215Z,60.50
2022-07-25T17:41:16.136Z,57.70
2022-07-25T17:43:42.924Z,56.20
2022-07-25T17:46:13.236Z,56.30
2022-07-25T17:48:41.184Z,58.90
2022-07-25T17:51:08.375Z,56.80
2022-07-25T17:53:35.576Z,59.60
2022-07-25T17:56:03.498Z,59.00
2022-07-25T17:58:31.819Z,60.20
2022-07-25T18:01:01.328Z,60.10
2022-07-25T18:03:28.827Z,57.60
2022-07-25T18:05:56.185Z,56.60
2022-07-25T18:08:23.093Z,57.80
2022-07-25T18:10:50.536Z,60.00
2022-07-25T18:13:18.528Z,61.90
2022-07-25T18:15:46.589Z,63.50
2022-07-25T18:18:18.438Z,64.90
2022-07-25T18:20:47.868Z,66.80
2022-07-25T18:23:14.860Z,68.40
2022-07-25T18:25:43.785Z,69.70
2022-07-25T18:28:12.428Z,71.20
2022-07-25T18:30:39.348Z,72.50
2022-07-25T18:33:07.319Z,73.30
2022-07-25T18:35:34.330Z,74.20
2022-07-25T18:38:02.175Z,74.30
2022-07-25T18:40:29.205Z,74.90
2022-07-25T18:42:56.100Z,75.60
2022-07-25T18:45:24.101Z,75.90
2022-07-25T18:47:52.677Z,76.80
2022-07-25T18:50:20.335Z,77.20
2022-07-25T18:52:47.365Z,78.70
2022-07-25T18:55:14.347Z,81.10
2022-07-25T18:57:41.532Z,80.40
2022-07-25T19:00:10.673Z,82.60
2022-07-25T19:02:37.530Z,88.90
2022-07-25T19:05:04.630Z,85.00
2022-07-25T19:07:31.493Z,84.50
2022-07-25T19:09:58.396Z,86.40
2022-07-25T19:12:27.400Z,90.20
2022-07-25T19:14:54.787Z,90.80
2022-07-25T19:17:21.763Z,91.10
2022-07-25T19:19:48.560Z,87.70
2022-07-25T19:22:15.413Z,89.20
2022-07-25T19:24:42.861Z,86.50
2022-07-25T19:27:10.241Z,86.90
2022-07-25T19:29:37.753Z,86.00
2022-07-25T19:32:05.219Z,83.80
2022-07-25T19:34:32.253Z,83.60
2022-07-25T19:36:59.151Z,83.20
2022-07-25T19:39:25.975Z,84.10
2022-07-25T19:41:53.164Z,84.90
2022-07-25T19:44:20.575Z,85.50
2022-07-25T19:46:49.049Z,86.80
2022-07-25T19:49:16.261Z,87.50
2022-07-25T19:51:43.190Z,88.70
2022-07-25T19:54:10.480Z,88.80
2022-07-25T19:56:37.719Z,89.20
2022-07-25T19:59:04.717Z,89.20
2022-07-25T20:01:35.454Z,89.40
2022-07-25T20:04:05.253Z,90.20
2022-07-25T20:06:32.524Z,90.10
2022-07-25T20:08:59.590Z,89.10
2022-07-25T20:11:26.476Z,89.20
2022-07-25T20:13:54.095Z,88.80
2022-07-25T20:16:20.959Z,87.70
2022-07-25T20:18:47.771Z,86.70
2022-07-25T20:21:14.648Z,86.00
2022-07-25T20:23:41.518Z,86.10
2022-07-25T20:26:08.349Z,85.30
2022-07-25T20:28:35.474Z,84.50
2022-07-25T20:31:02.751Z,84.40
2022-07-25T20:33:30.030Z,85.30
2022-07-25T20:35:57.700Z,85.90
2022-07-25T20:38:28.181Z,86.30
2022-07-25T20:40:55.691Z,85.80
2022-07-25T20:43:22.684Z,85.40
2022-07-25T20:45:49.706Z,85.80
2022-07-25T20:48:16.511Z,84.90
2022-07-25T20:50:44.518Z,84.50
2022-07-25T20:53:11.805Z,84.40
2022-07-25T20:55:38.627Z,84.00
2022-07-25T20:58:05.611Z,85.70
2022-07-25T21:00:32.674Z,83.50
2022-07-25T21:03:01.136Z,84.00
2022-07-25T21:05:28.482Z,85.10
2022-07-25T21:07:55.646Z,83.70
2022-07-25T21:10:22.549Z,83.30
2022-07-25T21:12:49.567Z,82.80
2022-07-25T21:15:16.418Z,82.80
2022-07-25T21:17:43.677Z,82.50
2022-07-25T21:20:14.452Z,82.60
2022-07-25T21:22:42.327Z,82.80
2022-07-25T21:25:10.576Z,82.90
2022-07-25T21:27:37.845Z,82.90
2022-07-25T21:30:06.792Z,82.90
2022-07-25T21:32:34.098Z,82.80
2022-07-25T21:35:00.894Z,82.60
2022-07-25T21:37:27.725Z,82.50
2022-07-25T21:39:54.566Z,83.10
2022-07-25T21:42:21.322Z,82.60
2022-07-25T21:44:48.131Z,82.70
2022-07-25T21:47:15.139Z,82.20
2022-07-25T21:50:00.591Z,81.70
2022-07-25T21:52:34.555Z,80.60
2022-07-25T21:55:04.087Z,79.90
2022-07-25T21:57:31.690Z,78.60
2022-07-25T21:59:58.511Z,78.80
2022-07-25T22:02:25.696Z,78.20
2022-07-25T22:04:52.729Z,78.30
2022-07-25T22:07:19.578Z,77.30
2022-07-25T22:09:46.469Z,77.20
2022-07-25T22:12:14.620Z,77.20
2022-07-25T22:14:41.457Z,77.20
2022-07-25T22:17:09.188Z,77.40
2022-07-25T22:19:35.949Z,78.20
2022-07-25T22:22:04.839Z,78.40
2022-07-25T22:24:31.675Z,77.80
2022-07-25T22:26:58.543Z,77.40
2022-07-25T22:29:25.338Z,77.50
2022-07-25T22:31:52.191Z,77.80
2022-07-25T22:34:19.140Z,78.30
2022-07-25T22:36:46.408Z,78.10
2022-07-25T22:39:13.260Z,77.80
2022-07-25T22:41:40.113Z,78.10
2022-07-25T22:44:06.887Z,77.70
2022-07-25T22:46:34.515Z,77.80
2022-07-25T22:49:02.108Z,77.70
2022-07-25T22:51:29.937Z,77.80
2022-07-25T22:53:58.554Z,77.90
2022-07-25T22:56:26.636Z,78.70
2022-07-25T22:58:53.485Z,78.30
2022-07-25T23:01:20.673Z,78.00
2022-07-25T23:03:49.968Z,78.00
2022-07-25T23:06:19.319Z,77.90
2022-07-25T23:08:46.773Z,78.40
2022-07-25T23:11:13.718Z,78.00
2022-07-25T23:13:40.563Z,77.90
2022-07-25T23:16:10.090Z,78.20
2022-07-25T23:18:37.389Z,77.80
2022-07-25T23:21:04.259Z,77.80
2022-07-25T23:23:31.403Z,77.80
2022-07-25T23:25:58.207Z,77.20
2022-07-25T23:28:25.011Z,77.30
2022-07-25T23:30:51.787Z,77.50
2022-07-25T23:33:18.589Z,77.50
2022-07-25T23:35:52.409Z,77.50
2022-07-25T23:38:19.199Z,78.20
2022-07-25T23:40:46.010Z,77.80
2022-07-25T23:43:13.605Z,77.50
2022-07-25T23:45:45.778Z,77.50
2022-07-25T23:48:15.052Z,78.30
2022-07-25T23:50:41.850Z,79.60
2022-07-25T23:53:09.900Z,79.50
2022-07-25T23:55:36.695Z,80.70
2022-07-25T23:58:03.488Z,82.90
